createdAt,value
2023-03-29T00:04:03.003Z,70.18
2023-03-29T00:09:06.367Z,78.00
2023-03-29T00:14:09.350Z,78.03
2023-03-29T00:19:12.158Z,84.00
2023-03-29T00:24:15.328Z,87.10
2023-03-29T00:29:18.043Z,78.20
2023-03-29T00:34:21.447Z,83.38
2023-03-29T00:39:24.857Z,79.03
2023-03-29T00:44:54.090Z,84.15
2023-03-29T00:50:02.014Z,80.97
2023-03-29T00:55:10.996Z,80.30
2023-03-29T01:00:21.257Z,72.38
2023-03-29T01:05:29.934Z,71.15
2023-03-29T01:11:19.966Z,75.18
2023-03-29T01:16:23.532Z,69.90
2023-03-29T01:21:33.787Z,69.15
2023-03-29T01:26:58.487Z,68.78
2023-03-29T01:32:09.342Z,58.50
2023-03-29T01:37:34.771Z,58.35
2023-03-29T01:42:44.932Z,54.28
2023-03-29T01:48:23.163Z,52.00
2023-03-29T01:53:47.984Z,50.53
2023-03-29T01:58:53.215Z,46.55
2023-03-29T02:09:00.467Z,54.70
2023-03-29T02:14:03.956Z,38.40
2023-03-29T02:19:08.257Z,38.58
2023-03-29T02:24:13.669Z,36.45
2023-03-29T02:29:16.733Z,37.28
2023-03-29T02:34:24.905Z,34.63
2023-03-29T02:39:29.000Z,33.53
2023-03-29T02:44:33.511Z,37.33
2023-03-29T02:49:36.609Z,35.55
2023-03-29T02:54:43.428Z,37.03
2023-03-29T02:59:46.347Z,34.15
2023-03-29T03:04:49.771Z,32.70
2023-03-29T03:09:53.088Z,34.53
2023-03-29T03:14:56.080Z,32.58
2023-03-29T03:19:59.364Z,33.40
2023-03-29T03:25:03.641Z,30.58
2023-03-29T03:30:07.203Z,30.55
2023-03-29T03:35:28.161Z,43.60
2023-03-29T03:40:30.979Z,48.92
2023-03-29T03:45:34.211Z,31.40
2023-03-29T03:50:56.671Z,34.83
2023-03-29T03:56:02.538Z,32.75
2023-03-29T04:01:10.308Z,29.38
2023-03-29T04:06:20.199Z,26.67
2023-03-29T04:11:42.759Z,26.88
2023-03-29T04:16:46.913Z,26.30
2023-03-29T04:22:09.845Z,26.30
2023-03-29T04:27:13.437Z,26.83
2023-03-29T04:32:16.567Z,23.08
2023-03-29T04:37:36.336Z,22.95
2023-03-29T04:42:39.477Z,27.00
2023-03-29T04:47:42.526Z,22.60
2023-03-29T04:52:52.300Z,21.42
2023-03-29T04:57:55.931Z,21.35
2023-03-29T05:03:13.798Z,21.33
2023-03-29T05:08:42.797Z,18.95
2023-03-29T05:14:02.707Z,18.23
2023-03-29T05:19:09.603Z,15.43
2023-03-29T05:24:17.012Z,18.90
2023-03-29T05:29:33.234Z,17.58
2023-03-29T05:34:55.251Z,15.40
2023-03-29T05:40:05.703Z,18.25
2023-03-29T05:45:16.452Z,21.20
2023-03-29T05:50:19.725Z,16.35
2023-03-29T05:55:24.377Z,13.15
2023-03-29T06:00:28.483Z,12.65
2023-03-29T06:10:45.875Z,8.52
2023-03-29T06:16:08.987Z,7.55
2023-03-29T06:21:12.799Z,7.32
2023-03-29T06:26:16.107Z,8.90
2023-03-29T06:31:20.226Z,12.77
2023-03-29T06:36:26.293Z,9.30
2023-03-29T06:41:29.402Z,7.93
2023-03-29T06:46:55.014Z,15.98
2023-03-29T06:51:57.955Z,11.85
2023-03-29T06:57:05.825Z,10.82
2023-03-29T07:02:12.823Z,15.20
2023-03-29T07:07:53.900Z,10.98
2023-03-29T07:13:17.664Z,10.73
2023-03-29T07:18:21.358Z,9.70
2023-03-29T07:23:24.268Z,14.32
2023-03-29T07:28:27.694Z,12.63
2023-03-29T07:33:30.984Z,11.13
2023-03-29T07:38:38.354Z,7.15
2023-03-29T07:43:50.445Z,7.38
2023-03-29T07:48:57.635Z,8.27
2023-03-29T07:54:00.657Z,7.18
2023-03-29T07:59:21.985Z,8.60
2023-03-29T08:04:34.333Z,5.22
2023-03-29T08:09:52.073Z,8.07
2023-03-29T08:14:58.326Z,6.30
2023-03-29T08:20:11.357Z,8.23
2023-03-29T08:25:17.034Z,9.40
2023-03-29T08:30:24.454Z,7.18
2023-03-29T08:35:28.038Z,7.32
2023-03-29T08:40:55.777Z,7.93
2023-03-29T08:46:03.477Z,4.05
2023-03-29T08:51:24.997Z,6.85
2023-03-29T08:56:31.443Z,5.03
2023-03-29T09:01:53.837Z,6.47
2023-03-29T09:12:41.283Z,4.07
2023-03-29T09:17:59.348Z,7.30
2023-03-29T09:23:27.476Z,7.35
2023-03-29T09:29:09.723Z,7.25
2023-03-29T09:34:36.541Z,6.82
2023-03-29T09:39:44.194Z,10.32
2023-03-29T09:44:54.360Z,6.28
2023-03-29T09:50:19.825Z,6.07
2023-03-29T09:55:36.751Z,6.10
2023-03-29T10:01:16.052Z,4.25
2023-03-29T10:06:21.737Z,7.35
2023-03-29T10:11:32.227Z,7.28
2023-03-29T10:16:39.724Z,6.22
2023-03-29T10:21:42.693Z,6.65
2023-03-29T10:26:45.588Z,10.27
2023-03-29T10:31:48.355Z,6.90
2023-03-29T10:37:09.605Z,8.68
2023-03-29T10:42:17.870Z,7.90
2023-03-29T10:47:21.897Z,8.18
2023-03-29T10:52:25.303Z,5.25
2023-03-29T10:58:17.264Z,10.95
2023-03-29T11:03:57.355Z,8.27
2023-03-29T11:09:03.337Z,7.70
2023-03-29T11:14:14.938Z,5.63
2023-03-29T11:19:39.003Z,7.72
2023-03-29T11:24:44.569Z,4.40
2023-03-29T11:35:08.671Z,9.40
2023-03-29T11:40:15.678Z,7.85
2023-03-29T11:45:27.615Z,14.35
2023-03-29T11:50:43.031Z,4.85
2023-03-29T11:55:46.432Z,11.68
2023-03-29T12:00:52.731Z,7.15
2023-03-29T12:06:04.867Z,6.68
2023-03-29T12:11:24.717Z,8.98
2023-03-29T12:16:47.825Z,10.85
2023-03-29T12:21:51.809Z,9.18
2023-03-29T12:27:01.851Z,7.33
2023-03-29T12:32:23.254Z,8.60
2023-03-29T12:38:02.043Z,10.32
2023-03-29T12:43:38.051Z,7.47
2023-03-29T12:48:58.652Z,6.70
2023-03-29T12:59:39.244Z,4.40
2023-03-29T13:04:44.741Z,8.02
2023-03-29T13:09:47.631Z,4.72
2023-03-29T13:14:59.787Z,6.07
2023-03-29T13:20:09.835Z,4.97
2023-03-29T13:25:50.214Z,5.63
2023-03-29T13:30:53.106Z,4.88
2023-03-29T13:36:06.952Z,6.88
2023-03-29T13:41:32.811Z,5.85
2023-03-29T13:46:42.902Z,4.90
2023-03-29T13:52:03.254Z,6.82
2023-03-29T13:57:14.283Z,5.57
2023-03-29T14:02:33.035Z,7.07
2023-03-29T14:07:38.666Z,10.27
2023-03-29T14:17:45.081Z,5.40
2023-03-29T14:22:48.118Z,8.50
2023-03-29T14:27:50.956Z,3.10
2023-03-29T14:32:54.270Z,2.10
2023-03-29T14:37:57.577Z,2.53
2023-03-29T14:43:05.797Z,2.53
2023-03-29T14:48:11.863Z,2.28
2023-03-29T14:53:20.283Z,0.93
2023-03-29T14:58:28.890Z,2.00
2023-03-29T15:03:32.299Z,19.38
2023-03-29T15:08:38.180Z,1.25
2023-03-29T15:13:42.788Z,1.55
2023-03-29T15:18:46.744Z,1.60
2023-03-29T15:24:19.864Z,1.33
2023-03-29T15:29:26.744Z,1.63
2023-03-29T15:34:33.306Z,1.60
2023-03-29T15:39:38.398Z,1.58
2023-03-29T15:44:41.589Z,1.48
2023-03-29T15:49:44.379Z,2.22
2023-03-29T15:54:47.077Z,3.30
2023-03-29T15:59:49.918Z,2.47
2023-03-29T16:04:53.818Z,2.92
2023-03-29T16:09:56.925Z,3.10
2023-03-29T16:14:59.675Z,2.58
2023-03-29T16:20:02.617Z,0.98
2023-03-29T16:25:12.004Z,2.03
2023-03-29T16:30:15.462Z,1.42
2023-03-29T16:35:27.279Z,5.45
2023-03-29T16:40:29.970Z,6.47
2023-03-29T16:45:32.791Z,1.95
2023-03-29T16:50:35.587Z,1.63
2023-03-29T16:55:38.514Z,2.05
2023-03-29T17:00:41.431Z,2.05
2023-03-29T17:06:02.911Z,2.20
2023-03-29T17:11:09.062Z,1.77
2023-03-29T17:16:11.945Z,1.48
2023-03-29T17:21:14.883Z,1.75
2023-03-29T17:26:17.872Z,2.15
2023-03-29T17:31:20.976Z,2.65
2023-03-29T17:36:25.800Z,2.03
2023-03-29T17:41:30.818Z,1.30
2023-03-29T17:46:34.585Z,2.17
2023-03-29T17:51:37.390Z,2.28
2023-03-29T17:56:40.535Z,4.40
2023-03-29T18:01:43.593Z,1.52
2023-03-29T18:06:46.393Z,1.63
2023-03-29T18:11:49.144Z,1.65
2023-03-29T18:16:51.973Z,2.72
2023-03-29T18:21:55.025Z,1.10
2023-03-29T18:26:58.035Z,2.65
2023-03-29T18:32:03.219Z,1.48
2023-03-29T18:37:06.432Z,3.20
2023-03-29T18:42:11.629Z,2.65
2023-03-29T18:47:14.962Z,3.72
2023-03-29T18:52:17.695Z,1.80
2023-03-29T18:57:20.751Z,3.85
2023-03-29T19:02:23.570Z,1.67
2023-03-29T19:07:26.429Z,5.05
2023-03-29T19:12:29.845Z,2.38
2023-03-29T19:17:32.597Z,3.13
2023-03-29T19:22:35.301Z,2.88
2023-03-29T19:27:38.064Z,2.83
2023-03-29T19:32:40.876Z,2.85
2023-03-29T19:37:43.644Z,3.58
2023-03-29T19:42:48.139Z,3.58
2023-03-29T19:47:58.264Z,3.35
2023-03-29T19:53:01.234Z,2.63
2023-03-29T19:58:05.202Z,1.52
2023-03-29T20:03:10.839Z,3.20
2023-03-29T20:08:19.553Z,4.15
2023-03-29T20:13:35.466Z,2.97
2023-03-29T20:18:41.251Z,2.58
2023-03-29T20:23:44.486Z,2.10
2023-03-29T20:28:47.305Z,3.92
2023-03-29T20:33:50.012Z,2.65
2023-03-29T20:38:55.645Z,2.33
2023-03-29T20:43:58.825Z,5.32
2023-03-29T20:49:03.586Z,3.03
2023-03-29T20:54:07.974Z,1.40
2023-03-29T20:59:13.818Z,3.30
2023-03-29T21:04:16.789Z,3.00
2023-03-29T21:09:21.400Z,4.10
2023-03-29T21:14:24.194Z,1.63
2023-03-29T21:19:27.089Z,1.83
2023-03-29T21:24:29.876Z,2.92
2023-03-29T21:29:32.732Z,2.80
2023-03-29T21:34:35.708Z,4.70
2023-03-29T21:39:38.435Z,3.35
2023-03-29T21:44:41.157Z,2.40
2023-03-29T21:49:43.902Z,0.65
2023-03-29T21:54:46.888Z,2.10
2023-03-29T21:59:49.578Z,2.28
2023-03-29T22:04:52.294Z,7.78
2023-03-29T22:09:55.119Z,1.67
2023-03-29T22:14:57.898Z,3.67
2023-03-29T22:20:01.057Z,1.95
2023-03-29T22:30:08.653Z,3.17
2023-03-29T22:35:11.515Z,2.50
2023-03-29T22:40:14.448Z,2.28
2023-03-29T22:45:17.308Z,4.75
2023-03-29T22:50:20.104Z,2.33
2023-03-29T22:55:22.844Z,3.35
2023-03-29T23:00:25.628Z,2.92
2023-03-29T23:05:28.590Z,3.72
2023-03-29T23:10:31.507Z,3.00
2023-03-29T23:15:35.073Z,2.88
2023-03-29T23:20:38.120Z,1.87
2023-03-29T23:25:40.864Z,4.72
2023-03-29T23:30:43.865Z,2.67
2023-03-29T23:35:46.998Z,6.43
2023-03-29T23:40:54.741Z,5.28
2023-03-29T23:46:02.345Z,3.13
2023-03-29T23:51:06.298Z,4.55
2023-03-29T23:56:09.462Z,4.93
